NCAR-RAP Real-Time Weather Data

Output produced by METARs form (17 December 2018  15:07 UTC)
found at http://weather.rap.ucar.edu/surface/
 
RJCN 170900Z 11003KT 9999 -SHSN FEW010 SCT015 BKN040 01/M01 Q1003
RJCN 170800Z 19003KT 9999 -SHSN FEW010 SCT015 BKN025 02/M01 Q1003
RJCN 170700Z VRB01KT 9999 FEW015 SCT025 BKN040 02/M02 Q1002
RJCN 170600Z 03003KT 350V070 9999 FEW015 SCT020 BKN045 03/M02 Q1001
RJCN 170500Z 29003KT 240V020 9999 FEW015 SCT020 05/M02 Q1001
RJCN 170400Z VRB01KT 9999 FEW015 SCT045 05/00 Q1001
RJCN 170300Z 15004KT 9999 FEW015 05/01 Q1002
RJCN 170200Z 12007KT 9999 FEW015 05/01 Q1003
RJCN 170100Z 09004KT 060V140 9999 FEW010 03/01 Q1003
RJCN 170000Z 23010KT 5000 BR FEW020 02/02 Q1003
RJCN 162338Z 23009KT 1600 R08/0750VP2000U BR FEW020 01/01 Q1003 RMK 1CU020 A2962
RJCN 162330Z 23008KT 1500 R08/0600VP2000D MIFG BR FEW020 M00/M00 Q1003
RJCN 160900Z 23008KT 9999 FEW040 BKN120 00/M04 Q1014
RJCN 160800Z 29004KT 240V330 9999 FEW040 SCT150 BKN/// M02/M05 Q1014
RJCN 160700Z 27003KT 9999 FEW040 BKN/// M03/M07 Q1015
RJCN 160600Z 26003KT 9999 FEW030 BKN/// M02/M07 Q1015
RJCN 160500Z 26004KT 9999 FEW030 BKN/// M00/M06 Q1015
RJCN 160400Z 24010KT 9999 FEW030 BKN/// 01/M06 Q1016
RJCN 160300Z 24007KT 9999 FEW030 M00/M06 Q1016
RJCN 160200Z 23008KT 9999 FEW040 SCT140 M03/M07 Q1017
RJCN 160100Z 21008KT 9999 FEW030 SCT120 BKN140 M04/M08 Q1018
RJCN 160000Z 23006KT 9999 FEW030 SCT120 BKN140 M05/M08 Q1019
RJCN 152330Z 22005KT 9999 FEW030 BKN120 M07/M10 Q1019
RJCN 150900Z 25004KT 9999 FEW020 M10/M13 Q1020
RJCN 150800Z 22006KT 9999 FEW020 M06/M11 Q1020
RJCN 150700Z 22003KT 9999 FEW020 SCT040 M06/M11 Q1020
RJCN 150600Z 29003KT 230V350 9999 FEW020 M02/M11 Q1020
RJCN 150500Z 28008KT 250V310 9999 FEW020 M02/M10 Q1019
RJCN 150400Z 25009KT 9999 FEW020 SCT040 M02/M09 Q1019